Lebo, Kansas
Current Conditions -  °F | °C
As of 2:53 PM on Thursday 27 Nov 2014 (Local Time) from KEMP Reporting Station
Clear Clear  
Wind Chill:   Ceiling: Unl
Heat Index:   Visibility: 10mi
Dew Point: -9°   Wind: 13mph
Humidity: 36%   Direction: 170°S
Pressure: 30.36"   Gusts: NA
Location:  38.42°N, 95.85°W
Report Text: KEMP 272053Z AUTO 17011KT 10SM CLR 05/M09 A3036 RMK AO2 SLP295 T00501089 56043
Loading
Personal Weather Stations






























Interactive Weather Map New forecast layout! Learn more

10-Day Weather Forecast

Advertisements
Track Severe Weather on mobile